createdAt,value
2022-12-03T00:01:16.051Z,101338.16
2022-12-03T00:03:43.702Z,101333.75
2022-12-03T00:06:11.187Z,101331.91
2022-12-03T00:08:38.499Z,101332.78
2022-12-03T00:11:06.009Z,101337.28
2022-12-03T00:13:33.361Z,101332.03
2022-12-03T00:16:00.724Z,101325.81
2022-12-03T00:18:28.110Z,101336.44
2022-12-03T00:20:55.462Z,101336.56
2022-12-03T00:23:22.825Z,101330.34
2022-12-03T00:25:50.112Z,101333.03
2022-12-03T00:28:17.336Z,101327.66
2022-12-03T00:30:44.781Z,101325.94
2022-12-03T00:33:12.118Z,101328.63
2022-12-03T00:35:39.485Z,101331.31
2022-12-03T00:38:06.788Z,101323.38
2022-12-03T00:40:34.946Z,101327.75
2022-12-03T00:43:02.254Z,101326.06
2022-12-03T00:45:29.499Z,101327.88
2022-12-03T00:47:57.724Z,101326.06
2022-12-03T00:50:24.990Z,101325.19
2022-12-03T00:52:52.379Z,101329.72
2022-12-03T00:55:19.711Z,101330.56
2022-12-03T00:57:47.335Z,101327.88
2022-12-03T01:00:15.361Z,101337.78
2022-12-03T01:02:42.818Z,101330.56
2022-12-03T01:05:10.156Z,101332.41
2022-12-03T01:07:37.607Z,101333.38
2022-12-03T01:10:05.600Z,101338.63
2022-12-03T01:12:32.839Z,101331.56
2022-12-03T01:15:00.145Z,101331.56
2022-12-03T01:17:27.511Z,101335.22
2022-12-03T01:19:55.081Z,101334.25
2022-12-03T01:22:22.363Z,101333.38
2022-12-03T01:24:49.778Z,101332.53
2022-12-03T01:27:17.340Z,101328.13
2022-12-03T01:29:44.765Z,101323.59
2022-12-03T01:32:19.221Z,101328.97
2022-12-03T01:34:48.647Z,101326.28
2022-12-03T01:37:17.067Z,101320.06
2022-12-03T01:39:44.753Z,101325.44
2022-12-03T01:42:17.518Z,101319.22
2022-12-03T01:44:45.241Z,101322.75
2022-12-03T01:47:19.443Z,101322.75
2022-12-03T01:49:57.351Z,101320.06
2022-12-03T01:52:29.283Z,101316.53
2022-12-03T01:54:59.839Z,101312.13
2022-12-03T01:57:29.367Z,101321.03
2022-12-03T01:59:58.586Z,101313.13
2022-12-03T02:02:29.885Z,101313.97
2022-12-03T02:04:58.025Z,101311.28
2022-12-03T02:07:27.628Z,101304.22
2022-12-03T02:09:57.128Z,101313.97
2022-12-03T02:12:48.833Z,101302.38
2022-12-03T02:15:16.537Z,101299.78
2022-12-03T02:17:44.208Z,101299.78
2022-12-03T02:20:13.153Z,101300.66
2022-12-03T02:22:59.947Z,101299.78
2022-12-03T02:25:32.828Z,101292.72
2022-12-03T02:28:01.865Z,101290.03
2022-12-03T02:30:30.409Z,101289.06
2022-12-03T02:32:58.385Z,101284.66
2022-12-03T02:35:29.647Z,101282.84
2022-12-03T02:38:06.372Z,101282.00
2022-12-03T02:40:34.314Z,101281.13
2022-12-03T02:43:03.575Z,101273.09
2022-12-03T02:45:34.384Z,101274.91
2022-12-03T02:48:18.564Z,101278.44
2022-12-03T02:50:53.317Z,101285.66
2022-12-03T02:53:44.835Z,101282.97
2022-12-03T02:56:15.015Z,101282.13
2022-12-03T02:58:45.170Z,101285.66
2022-12-03T03:01:13.072Z,101274.06
2022-12-03T03:03:41.243Z,101283.06
2022-12-03T03:06:09.512Z,101282.97
2022-12-03T03:08:38.844Z,101267.84
2022-12-03T03:11:06.180Z,101272.34
2022-12-03T03:13:35.436Z,101270.53
2022-12-03T03:16:05.446Z,101269.66
2022-12-03T03:18:34.134Z,101269.78
2022-12-03T03:21:02.027Z,101269.78
2022-12-03T03:23:29.432Z,101269.66
2022-12-03T03:26:07.251Z,101266.13
2022-12-03T03:28:38.416Z,101263.44
2022-12-03T03:31:08.053Z,101260.75
2022-12-03T03:33:38.971Z,101257.22
2022-12-03T03:36:07.451Z,101265.25
2022-12-03T03:38:35.729Z,101265.25
2022-12-03T03:41:05.974Z,101253.66
2022-12-03T03:43:35.323Z,101256.34
2022-12-03T03:46:05.458Z,101252.81
2022-12-03T03:48:34.581Z,101250.28
2022-12-03T03:51:08.983Z,101255.63
2022-12-03T03:53:42.635Z,101251.13
2022-12-03T03:56:10.704Z,101250.28
2022-12-03T03:58:38.650Z,101249.38
2022-12-03T04:01:06.385Z,101251.22
2022-12-03T04:03:34.686Z,101259.28
2022-12-03T04:06:02.021Z,101249.53
2022-12-03T04:08:29.614Z,101253.06
2022-12-03T04:11:15.341Z,101249.53
2022-12-03T04:13:42.757Z,101250.38
2022-12-03T04:16:10.868Z,101253.06
2022-12-03T04:18:44.189Z,101253.06
2022-12-03T04:21:31.290Z,101254.75
2022-12-03T04:23:59.062Z,101249.53
2022-12-03T04:26:45.362Z,101247.69
2022-12-03T04:29:14.561Z,101251.22
2022-12-03T04:32:01.705Z,101239.78
2022-12-03T04:34:47.784Z,101236.94
2022-12-03T04:37:15.082Z,101236.09
2022-12-03T04:39:42.618Z,101233.41
2022-12-03T04:42:09.966Z,101234.41
2022-12-03T04:44:37.347Z,101226.34
2022-12-03T04:47:17.208Z,101223.53
2022-12-03T04:49:46.950Z,101227.19
2022-12-03T04:52:16.626Z,101228.19
2022-12-03T04:54:44.108Z,101226.34
2022-12-03T04:57:12.033Z,101222.81
2022-12-03T04:59:39.458Z,101219.28
2022-12-03T05:02:07.385Z,101211.22
2022-12-03T05:04:34.872Z,101219.28
2022-12-03T05:07:02.462Z,101217.44
2022-12-03T05:09:29.779Z,101212.91
2022-12-03T05:11:57.042Z,101210.25
2022-12-03T05:14:24.370Z,101210.34
2022-12-03T05:16:51.649Z,101221.97
2022-12-03T05:19:18.958Z,101210.34
2022-12-03T05:21:46.303Z,101210.34
2022-12-03T05:24:14.934Z,101212.19
2022-12-03T05:26:42.254Z,101214.88
2022-12-03T05:29:09.605Z,101214.00
2022-12-03T05:31:36.923Z,101217.53
2022-12-03T05:34:04.640Z,101216.69
2022-12-03T05:36:32.078Z,101222.91
2022-12-03T05:38:59.413Z,101220.22
2022-12-03T05:41:45.561Z,101216.69
2022-12-03T05:44:17.399Z,101213.16
2022-12-03T05:46:47.663Z,101207.78
2022-12-03T05:49:14.913Z,101205.97
2022-12-03T05:51:43.476Z,101213.16
2022-12-03T05:54:10.716Z,101210.47
2022-12-03T05:56:37.926Z,101214.88
2022-12-03T05:59:05.350Z,101208.63
2022-12-03T06:01:32.686Z,101202.41
2022-12-03T06:04:00.126Z,101204.25
2022-12-03T06:06:27.431Z,101206.94
2022-12-03T06:08:54.840Z,101213.16
2022-12-03T06:11:22.650Z,101207.78
2022-12-03T06:13:49.996Z,101202.41
2022-12-03T06:16:17.346Z,101204.25
2022-12-03T06:18:44.689Z,101206.09
2022-12-03T06:21:11.994Z,101206.09
2022-12-03T06:23:44.639Z,101208.78
2022-12-03T06:26:12.912Z,101207.94
2022-12-03T06:28:41.026Z,101210.59
2022-12-03T06:31:08.290Z,101211.47
2022-12-03T06:33:35.638Z,101215.97
2022-12-03T06:36:02.940Z,101203.50
2022-12-03T06:38:30.482Z,101210.59
2022-12-03T06:40:57.819Z,101208.03
2022-12-03T06:43:25.146Z,101208.03
2022-12-03T06:45:53.090Z,101209.75
2022-12-03T06:48:20.381Z,101205.34
2022-12-03T06:50:47.839Z,101212.53
2022-12-03T06:53:15.084Z,101213.41
2022-12-03T06:55:42.399Z,101214.38
2022-12-03T06:58:09.679Z,101215.38
2022-12-03T07:00:36.976Z,101218.91
2022-12-03T07:03:04.880Z,101214.38
2022-12-03T07:05:32.215Z,101211.69
2022-12-03T07:07:59.767Z,101206.31
2022-12-03T07:10:27.117Z,101214.38
2022-12-03T07:12:54.423Z,101215.22
2022-12-03T07:15:21.726Z,101217.06
2022-12-03T07:17:48.947Z,101204.63
2022-12-03T07:20:16.416Z,101210.84
2022-12-03T07:22:43.688Z,101206.31
2022-12-03T07:25:14.128Z,101211.69
2022-12-03T07:27:42.999Z,101206.31
2022-12-03T07:30:13.844Z,101200.97
2022-12-03T07:32:41.236Z,101192.06
2022-12-03T07:35:09.263Z,101201.94
2022-12-03T07:37:37.233Z,101195.72
2022-12-03T07:40:05.557Z,101191.22
2022-12-03T07:42:32.835Z,101198.41
2022-12-03T07:45:00.077Z,101188.53
2022-12-03T07:47:27.387Z,101193.03
2022-12-03T07:49:54.721Z,101189.50
2022-12-03T07:52:22.082Z,101186.81
2022-12-03T07:54:49.414Z,101185.84
2022-12-03T07:57:16.644Z,101192.19
2022-12-03T07:59:43.929Z,101194.88
2022-12-03T08:02:11.279Z,101196.69
2022-12-03T08:04:38.584Z,101198.50
2022-12-03T08:07:06.306Z,101193.16
2022-12-03T08:09:33.543Z,101194.97
2022-12-03T08:12:06.356Z,101194.00
2022-12-03T08:14:33.684Z,101197.66
2022-12-03T08:17:01.479Z,101202.03
2022-12-03T08:19:28.760Z,101214.63
2022-12-03T08:22:01.097Z,101207.53
2022-12-03T08:24:30.534Z,101201.34
2022-12-03T08:26:57.837Z,101200.47
2022-12-03T08:29:25.210Z,101211.09
2022-12-03T08:31:57.146Z,101210.22
2022-12-03T08:34:27.464Z,101218.16
2022-12-03T08:37:12.556Z,101233.53
2022-12-03T08:39:46.422Z,101246.81
2022-12-03T08:42:32.184Z,101239.75
2022-12-03T08:45:18.494Z,101231.72
2022-12-03T08:47:46.124Z,101223.66
2022-12-03T08:50:35.906Z,101218.28
2022-12-03T08:53:12.030Z,101216.44
2022-12-03T08:55:45.613Z,101223.66
2022-12-03T08:58:33.411Z,101230.72
2022-12-03T09:01:22.827Z,101214.75
2022-12-03T09:04:18.484Z,101219.13
2022-12-03T09:06:45.830Z,101207.69
2022-12-03T09:09:13.021Z,101219.28
2022-12-03T09:11:40.482Z,101220.97
2022-12-03T09:14:07.783Z,101229.03
2022-12-03T09:16:35.108Z,101234.63
2022-12-03T09:19:02.727Z,101238.28
2022-12-03T09:21:29.917Z,101234.63
2022-12-03T09:23:57.633Z,101240.00
2022-12-03T09:26:25.050Z,101244.41
2022-12-03T09:28:52.386Z,101254.25
2022-12-03T09:31:19.851Z,101248.78
2022-12-03T09:33:47.186Z,101246.09
2022-12-03T09:36:14.364Z,101239.88
2022-12-03T09:38:46.115Z,101232.69
2022-12-03T09:41:15.695Z,101234.53
2022-12-03T09:44:03.215Z,101235.59
2022-12-03T09:46:31.049Z,101225.97
2022-12-03T09:48:58.535Z,101233.28
2022-12-03T09:51:31.692Z,101219.13
2022-12-03T09:53:59.802Z,101214.63
2022-12-03T09:56:27.063Z,101195.94
2022-12-03T09:58:54.681Z,101199.63
2022-12-03T10:01:22.557Z,101202.66
2022-12-03T10:03:51.628Z,101194.84
2022-12-03T10:06:23.842Z,101203.88
2022-12-03T10:08:54.936Z,101195.69
2022-12-03T10:11:25.109Z,101193.78
2022-12-03T10:13:56.470Z,101189.97
2022-12-03T10:16:25.970Z,101180.97
2022-12-03T10:18:55.871Z,101176.44
2022-12-03T10:21:27.480Z,101172.78
2022-12-03T10:24:22.447Z,101172.66
2022-12-03T10:26:52.179Z,101164.59
2022-12-03T10:29:35.107Z,101169.00
2022-12-03T10:32:03.724Z,101164.50
2022-12-03T10:34:41.369Z,101170.72
2022-12-03T10:37:14.771Z,101170.72
2022-12-03T10:40:11.911Z,101162.53
2022-12-03T10:42:40.992Z,101159.84
2022-12-03T10:45:19.651Z,101161.53
2022-12-03T10:48:04.405Z,101150.94
2022-12-03T10:50:32.577Z,101145.19
2022-12-03T10:52:59.857Z,101148.50
2022-12-03T10:55:30.296Z,101153.88
2022-12-03T10:57:57.734Z,101150.09
2022-12-03T11:00:25.437Z,101149.63
2022-12-03T11:02:56.621Z,101150.34
2022-12-03T11:05:27.563Z,101154.56
2022-12-03T11:07:56.341Z,101151.88
2022-12-03T11:10:24.312Z,101140.91
2022-12-03T11:13:29.254Z,101144.97
2022-12-03T11:15:57.122Z,101147.28
2022-12-03T11:18:37.629Z,101145.31
2022-12-03T11:21:14.454Z,101138.88
2022-12-03T11:23:44.901Z,101130.69
2022-12-03T11:26:36.404Z,101123.38
2022-12-03T11:29:05.002Z,101134.72
2022-12-03T11:31:48.369Z,101126.69
2022-12-03T11:34:18.584Z,101130.09
2022-12-03T11:37:10.383Z,101133.66
2022-12-03T11:39:49.886Z,101130.81
2022-12-03T11:42:26.205Z,101122.78
2022-12-03T11:45:05.775Z,101131.69
2022-12-03T11:47:59.169Z,101131.69
2022-12-03T11:50:39.068Z,101130.69
2022-12-03T11:53:21.093Z,101130.69
2022-12-03T11:56:04.156Z,101119.84
2022-12-03T11:58:32.989Z,101115.34
2022-12-03T12:01:03.040Z,101108.28
2022-12-03T12:03:33.483Z,101108.28
2022-12-03T12:06:15.745Z,101116.19
2022-12-03T12:08:52.247Z,101106.31
2022-12-03T12:11:31.379Z,101100.09
2022-12-03T12:14:12.726Z,101100.94
2022-12-03T12:16:55.252Z,101093.75
2022-12-03T12:19:41.511Z,101092.91
2022-12-03T12:22:26.776Z,101092.91
2022-12-03T12:24:56.713Z,101096.44
2022-12-03T12:27:29.956Z,101096.44
2022-12-03T12:30:05.980Z,101089.34
2022-12-03T12:32:41.685Z,101092.91
2022-12-03T12:35:22.545Z,101090.22
2022-12-03T12:38:02.639Z,101089.34
2022-12-03T12:40:32.472Z,101089.22
2022-12-03T12:43:03.153Z,101084.84
2022-12-03T12:45:38.273Z,101083.00
2022-12-03T12:48:14.823Z,101077.66
2022-12-03T12:50:44.608Z,101074.13
2022-12-03T12:53:25.996Z,101065.22
2022-12-03T12:56:06.447Z,101070.44
2022-12-03T12:58:34.199Z,101074.84
2022-12-03T13:01:06.517Z,101067.75
2022-12-03T13:03:36.829Z,101065.06
2022-12-03T13:06:04.514Z,101067.75
2022-12-03T13:08:38.148Z,101057.03
2022-12-03T13:11:06.462Z,101054.34
2022-12-03T13:13:44.308Z,101058.88
2022-12-03T13:16:33.472Z,101057.03
2022-12-03T13:19:02.059Z,101045.44
2022-12-03T13:21:44.758Z,101047.28
2022-12-03T13:24:35.466Z,101045.44
2022-12-03T13:27:20.957Z,101033.00
2022-12-03T13:30:06.881Z,101039.09
2022-12-03T13:32:37.244Z,101038.38
2022-12-03T13:35:18.277Z,101028.50
2022-12-03T13:37:45.500Z,101022.28
2022-12-03T13:40:21.409Z,101023.13
2022-12-03T13:42:48.852Z,101019.59
2022-12-03T13:45:19.187Z,101017.75
2022-12-03T13:47:47.920Z,101028.50
2022-12-03T13:50:24.347Z,101025.81
2022-12-03T13:52:52.921Z,101027.66
2022-12-03T13:55:29.546Z,101031.19
2022-12-03T13:57:57.569Z,101024.97
2022-12-03T14:00:25.137Z,101018.75
2022-12-03T14:02:52.472Z,101030.34
2022-12-03T14:05:21.349Z,101028.50
2022-12-03T14:07:48.802Z,101037.53
2022-12-03T14:10:16.885Z,101024.13
2022-12-03T14:12:44.212Z,101023.13
2022-12-03T14:15:11.969Z,101018.75
2022-12-03T14:17:39.341Z,101027.66
2022-12-03T14:20:08.214Z,101024.13
2022-12-03T14:22:38.289Z,101024.97
2022-12-03T14:25:07.406Z,101026.81
2022-12-03T14:27:34.912Z,101029.47
2022-12-03T14:30:02.524Z,101021.44
2022-12-03T14:32:29.796Z,101019.59
2022-12-03T14:34:57.060Z,101029.47
2022-12-03T14:37:24.416Z,101025.81
2022-12-03T14:39:51.895Z,101019.59
2022-12-03T14:42:19.421Z,101015.09
2022-12-03T14:44:51.403Z,101021.28
2022-12-03T14:47:22.515Z,101023.97
2022-12-03T14:49:50.540Z,101023.97
2022-12-03T14:52:18.537Z,101024.81
2022-12-03T14:54:46.131Z,101019.47
2022-12-03T14:57:14.827Z,101028.34
2022-12-03T14:59:43.378Z,101022.16
2022-12-03T15:02:11.988Z,101027.41
2022-12-03T15:04:40.129Z,101028.34
2022-12-03T15:07:08.013Z,101026.56
2022-12-03T15:09:35.616Z,101035.47
2022-12-03T15:12:04.212Z,101036.31
2022-12-03T15:14:31.418Z,101036.31
2022-12-03T15:16:58.837Z,101041.66
2022-12-03T15:19:26.330Z,101046.06
2022-12-03T15:21:53.644Z,101033.47
2022-12-03T15:24:21.088Z,101037.16
2022-12-03T15:26:49.526Z,101036.16
2022-12-03T15:29:18.030Z,101035.31
2022-12-03T15:31:45.790Z,101036.16
2022-12-03T15:34:17.353Z,101039.69
2022-12-03T15:36:47.873Z,101034.34
2022-12-03T15:39:15.220Z,101045.91
2022-12-03T15:41:42.483Z,101040.56
2022-12-03T15:44:09.844Z,101050.31
2022-12-03T15:46:37.278Z,101046.78
2022-12-03T15:49:04.578Z,101046.78
2022-12-03T15:51:31.909Z,101053.88
2022-12-03T15:53:59.293Z,101052.16
2022-12-03T15:56:26.517Z,101048.50
2022-12-03T15:58:53.855Z,101053.00
2022-12-03T16:01:21.459Z,101058.38
2022-12-03T16:03:48.729Z,101051.19
2022-12-03T16:06:18.102Z,101048.50
2022-12-03T16:08:46.029Z,101053.88
2022-12-03T16:11:13.335Z,101056.53
2022-12-03T16:13:40.616Z,101054.56
2022-12-03T16:16:08.029Z,101059.00
2022-12-03T16:18:35.521Z,101051.78
2022-12-03T16:21:02.748Z,101049.09
2022-12-03T16:23:32.305Z,101055.31
2022-12-03T16:25:59.599Z,101058.09
2022-12-03T16:28:26.867Z,101058.00
2022-12-03T16:30:54.240Z,101056.16
2022-12-03T16:33:27.216Z,101056.16
2022-12-03T16:35:55.341Z,101052.63
2022-12-03T16:38:22.728Z,101043.72
2022-12-03T16:40:50.094Z,101050.81
2022-12-03T16:43:17.444Z,101051.66
2022-12-03T16:46:10.127Z,101053.34
2022-12-03T16:48:37.509Z,101054.19
2022-12-03T16:51:04.945Z,101052.25
2022-12-03T16:53:32.486Z,101054.78
2022-12-03T16:56:00.888Z,101052.13
2022-12-03T16:58:28.342Z,101059.22
2022-12-03T17:00:55.603Z,101051.16
2022-12-03T17:03:24.311Z,101057.38
2022-12-03T17:05:53.161Z,101050.19
2022-12-03T17:08:20.863Z,101058.22
2022-12-03T17:10:48.445Z,101056.53
2022-12-03T17:13:15.918Z,101059.06
2022-12-03T17:15:43.313Z,101065.16
2022-12-03T17:18:11.122Z,101054.56
2022-12-03T17:20:38.558Z,101053.47
2022-12-03T17:23:05.969Z,101054.31
2022-12-03T17:25:37.820Z,101050.63
2022-12-03T17:28:05.226Z,101054.31
2022-12-03T17:30:32.803Z,101054.16
2022-12-03T17:33:00.118Z,101054.06
2022-12-03T17:35:28.692Z,101046.13
2022-12-03T17:37:56.450Z,101054.06
2022-12-03T17:40:23.840Z,101049.56
2022-12-03T17:43:06.323Z,101046.88
2022-12-03T17:45:33.755Z,101046.72
2022-12-03T17:48:01.304Z,101045.88
2022-12-03T17:50:28.585Z,101041.34
2022-12-03T17:52:56.038Z,101042.22
2022-12-03T17:55:32.142Z,101035.00
2022-12-03T17:58:04.328Z,101042.94
2022-12-03T18:00:32.456Z,101031.22
2022-12-03T18:03:01.041Z,101028.53
2022-12-03T18:05:28.329Z,101033.06
2022-12-03T18:07:55.973Z,101030.22
2022-12-03T18:10:23.490Z,101026.69
2022-12-03T18:12:50.831Z,101025.72
2022-12-03T18:15:18.154Z,101023.88
2022-12-03T18:17:45.427Z,101017.66
2022-12-03T18:20:12.759Z,101018.50
2022-12-03T18:22:40.245Z,101014.72
2022-12-03T18:25:08.055Z,101014.72
2022-12-03T18:27:35.417Z,101016.44
2022-12-03T18:30:03.188Z,101013.75
2022-12-03T18:32:30.659Z,101012.78
2022-12-03T18:34:58.386Z,101015.47
2022-12-03T18:37:28.603Z,101007.41
2022-12-03T18:39:57.782Z,101017.16
2022-12-03T18:42:25.737Z,101011.66
2022-12-03T18:44:55.300Z,101012.66
2022-12-03T18:47:25.417Z,101015.19
2022-12-03T18:49:53.611Z,101014.34
2022-12-03T18:52:22.847Z,101020.56
2022-12-03T18:54:50.127Z,101019.59
2022-12-03T18:57:17.905Z,101019.59
2022-12-03T18:59:45.151Z,101015.94
2022-12-03T19:02:38.381Z,101023.00
2022-12-03T19:05:04.542Z,101014.94
2022-12-03T19:07:31.871Z,101015.78
2022-12-03T19:09:59.213Z,101018.47
2022-12-03T19:12:26.582Z,101014.94
2022-12-03T19:14:53.810Z,101017.50
2022-12-03T19:17:21.863Z,101015.69
2022-12-03T19:19:49.173Z,101014.81
2022-12-03T19:22:16.460Z,101011.25
2022-12-03T19:24:43.907Z,101012.13
2022-12-03T19:27:11.617Z,101012.00
2022-12-03T19:29:39.051Z,101014.69
2022-12-03T19:32:06.504Z,101014.69
2022-12-03T19:34:33.865Z,101026.28
2022-12-03T19:37:01.131Z,101022.59
2022-12-03T19:39:28.395Z,101017.25
2022-12-03T19:41:55.733Z,101021.75
2022-12-03T19:44:23.081Z,101017.25
2022-12-03T19:46:50.820Z,101012.72
2022-12-03T19:49:21.008Z,101007.34
2022-12-03T19:51:48.782Z,101007.34
2022-12-03T19:54:17.628Z,101001.13
2022-12-03T19:56:45.612Z,101008.19
2022-12-03T19:59:13.834Z,101010.88
2022-12-03T20:01:43.229Z,101012.59
2022-12-03T20:04:11.589Z,101011.63
2022-12-03T20:06:39.526Z,101008.94
2022-12-03T20:09:17.641Z,101003.56
2022-12-03T20:11:46.028Z,101010.78
2022-12-03T20:14:15.799Z,101012.47
2022-12-03T20:16:44.364Z,101006.38
2022-12-03T20:19:14.259Z,100999.19
2022-12-03T20:21:42.723Z,101000.03
2022-12-03T20:24:15.185Z,100992.09
2022-12-03T20:26:42.790Z,101001.13
2022-12-03T20:29:10.136Z,101007.34
2022-12-03T20:31:39.630Z,100999.28
2022-12-03T20:34:07.321Z,100991.38
2022-12-03T20:36:34.746Z,100994.75
2022-12-03T20:39:07.466Z,100987.69
2022-12-03T20:41:36.440Z,100983.19
2022-12-03T20:44:06.413Z,100983.19
2022-12-03T20:46:33.831Z,100983.19
2022-12-03T20:49:01.191Z,100985.88
2022-12-03T20:51:30.310Z,100980.38
2022-12-03T20:53:59.616Z,100985.63
2022-12-03T20:56:33.004Z,100977.56
2022-12-03T20:59:02.284Z,100973.19
2022-12-03T21:01:29.724Z,100967.66
2022-12-03T21:03:57.442Z,100968.66
2022-12-03T21:06:27.905Z,100966.66
2022-12-03T21:08:57.490Z,100963.97
2022-12-03T21:11:27.571Z,100956.81
2022-12-03T21:13:54.878Z,100965.72
2022-12-03T21:16:45.491Z,100969.25
2022-12-03T21:19:12.436Z,100966.56
2022-12-03T21:21:39.812Z,100961.19
2022-12-03T21:24:07.367Z,100962.03
2022-12-03T21:26:34.786Z,100960.19
2022-12-03T21:29:02.064Z,100958.28
2022-12-03T21:31:31.463Z,100961.91
2022-12-03T21:33:59.211Z,100964.50
2022-12-03T21:36:27.063Z,100970.72
2022-12-03T21:38:54.400Z,100974.25
2022-12-03T21:41:21.693Z,100975.09
2022-12-03T21:43:48.889Z,100987.69
2022-12-03T21:47:10.665Z,100984.84
2022-12-03T21:49:04.687Z,100975.94
2022-12-03T21:51:32.023Z,100982.16
2022-12-03T21:53:59.341Z,100981.22
2022-12-03T21:56:26.644Z,100986.59
2022-12-03T21:58:54.844Z,100983.75
2022-12-03T22:01:24.492Z,100981.06
2022-12-03T22:03:53.626Z,100982.91
2022-12-03T22:06:21.468Z,100977.41
2022-12-03T22:08:49.489Z,100963.13
2022-12-03T22:11:22.200Z,100973.75
2022-12-03T22:13:49.995Z,100982.38
2022-12-03T22:16:20.246Z,100998.38
2022-12-03T22:18:47.936Z,100981.41
2022-12-03T22:21:18.057Z,100984.09
2022-12-03T22:23:46.028Z,100975.19
2022-12-03T22:26:15.364Z,100963.47
2022-12-03T22:28:44.173Z,100959.94
2022-12-03T22:31:12.026Z,100958.09
2022-12-03T22:33:39.556Z,100953.69
2022-12-03T22:36:19.986Z,100943.81
2022-12-03T22:38:48.474Z,100940.28
2022-12-03T22:41:16.453Z,100931.22
2022-12-03T22:43:44.921Z,100933.75
2022-12-03T22:46:12.870Z,100921.31
2022-12-03T22:48:42.114Z,100918.63
2022-12-03T22:51:15.966Z,100901.53
2022-12-03T22:53:43.733Z,100908.59
2022-12-03T22:56:11.247Z,100914.97
2022-12-03T22:58:39.465Z,100922.03
2022-12-03T23:01:07.344Z,100930.09
2022-12-03T23:03:34.745Z,100925.59
2022-12-03T23:06:09.218Z,100930.97
2022-12-03T23:08:36.612Z,100923.75
2022-12-03T23:11:03.897Z,100920.22
2022-12-03T23:13:31.150Z,100924.72
2022-12-03T23:15:59.129Z,100934.50
2022-12-03T23:18:26.612Z,100924.59
2022-12-03T23:20:55.539Z,100922.75
2022-12-03T23:23:24.932Z,100910.31
2022-12-03T23:26:02.424Z,100904.94
2022-12-03T23:28:32.000Z,100896.75
2022-12-03T23:30:59.816Z,100890.53
2022-12-03T23:33:28.069Z,100883.31
2022-12-03T23:35:55.348Z,100874.41
2022-12-03T23:38:22.910Z,100872.56
2022-12-03T23:40:52.826Z,100859.13
2022-12-03T23:43:20.194Z,100848.41
2022-12-03T23:45:47.501Z,100843.03
2022-12-03T23:48:14.772Z,100845.84
2022-12-03T23:50:41.979Z,100843.16
2022-12-03T23:53:09.258Z,100836.06
2022-12-03T23:55:40.020Z,100822.63
2022-12-03T23:58:07.455Z,100819.09
